createdAt,value
2018-12-21T00:01:05.177Z,20.19
2018-12-21T00:03:31.141Z,20.17
2018-12-21T00:05:57.142Z,20.18
2018-12-21T00:08:23.139Z,20.17
2018-12-21T00:10:49.118Z,20.17
2018-12-21T00:13:15.081Z,20.15
2018-12-21T00:15:41.075Z,20.15
2018-12-21T00:18:07.045Z,20.15
2018-12-21T00:20:33.020Z,20.15
2018-12-21T00:22:59.003Z,20.18
2018-12-21T00:25:25.013Z,20.18
2018-12-21T00:27:50.956Z,20.17
2018-12-21T00:30:16.945Z,20.16
2018-12-21T00:32:43.013Z,20.17
2018-12-21T00:35:08.980Z,20.19
2018-12-21T00:37:34.929Z,20.18
2018-12-21T00:40:00.898Z,20.19
2018-12-21T00:42:26.866Z,20.17
2018-12-21T00:44:52.904Z,20.18
2018-12-21T00:47:18.891Z,20.18
2018-12-21T00:49:44.825Z,20.20
2018-12-21T00:52:10.840Z,20.19
2018-12-21T00:54:36.804Z,20.18
2018-12-21T00:57:02.781Z,20.20
2018-12-21T00:59:28.767Z,20.19
2018-12-21T01:01:54.759Z,20.17
2018-12-21T01:04:20.748Z,20.17
2018-12-21T01:06:46.703Z,20.14
2018-12-21T01:09:12.703Z,20.15
2018-12-21T01:11:38.669Z,20.15
2018-12-21T01:14:04.649Z,20.14
2018-12-21T01:16:30.628Z,20.13
2018-12-21T01:18:56.579Z,20.13
2018-12-21T01:21:22.530Z,20.14
2018-12-21T01:23:48.485Z,20.13
2018-12-21T01:26:14.523Z,20.15
2018-12-21T01:28:40.475Z,20.17
2018-12-21T01:31:06.420Z,20.15
2018-12-21T01:33:32.546Z,20.14
2018-12-21T01:35:58.598Z,20.16
2018-12-21T01:38:24.573Z,20.13
2018-12-21T01:40:50.559Z,20.13
2018-12-21T01:43:16.521Z,20.15
2018-12-21T01:45:42.495Z,20.12
2018-12-21T01:48:08.441Z,20.12
2018-12-21T01:50:34.409Z,20.14
2018-12-21T01:53:00.366Z,20.11
2018-12-21T01:55:26.343Z,20.10
2018-12-21T01:57:52.326Z,20.12
2018-12-21T02:00:18.386Z,20.10
2018-12-21T02:02:44.347Z,20.11
2018-12-21T02:05:10.344Z,20.13
2018-12-21T02:07:36.293Z,20.13
2018-12-21T02:10:02.287Z,20.15
2018-12-21T02:12:28.407Z,20.16
2018-12-21T02:14:54.386Z,20.17
2018-12-21T02:17:20.393Z,20.19
2018-12-21T02:19:46.423Z,20.21
2018-12-21T02:22:12.528Z,20.21
2018-12-21T02:24:38.621Z,20.21
2018-12-21T02:27:04.596Z,20.22
2018-12-21T02:29:30.562Z,20.25
2018-12-21T02:31:56.520Z,20.24
2018-12-21T02:34:22.481Z,20.26
2018-12-21T02:36:48.501Z,20.23
2018-12-21T02:39:14.541Z,20.22
2018-12-21T02:41:40.514Z,20.21
2018-12-21T02:44:06.470Z,20.22
2018-12-21T02:46:32.454Z,20.23
2018-12-21T02:48:58.453Z,20.22
2018-12-21T02:51:24.433Z,20.21
2018-12-21T02:53:50.570Z,20.20
2018-12-21T02:56:16.534Z,20.22
2018-12-21T02:58:42.572Z,20.21
2018-12-21T03:01:08.521Z,20.24
2018-12-21T03:03:34.495Z,20.25
2018-12-21T03:06:00.447Z,20.24
2018-12-21T03:08:26.429Z,20.25
2018-12-21T03:10:52.396Z,20.25
2018-12-21T03:13:18.433Z,20.25
2018-12-21T03:15:44.417Z,20.26
2018-12-21T03:18:10.386Z,20.25
2018-12-21T03:20:36.350Z,20.26
2018-12-21T03:23:02.392Z,20.26
2018-12-21T03:25:28.500Z,20.25
2018-12-21T03:27:54.457Z,20.26
2018-12-21T03:30:20.548Z,20.26
2018-12-21T03:32:46.491Z,20.25
2018-12-21T03:35:12.454Z,20.26
2018-12-21T03:37:38.435Z,20.27
2018-12-21T03:40:04.395Z,20.26
2018-12-21T03:42:30.461Z,20.27
2018-12-21T03:44:56.620Z,20.27
2018-12-21T03:47:22.597Z,20.28
2018-12-21T03:49:48.547Z,20.28
2018-12-21T03:52:24.001Z,20.29
2018-12-21T03:54:42.459Z,20.30
2018-12-21T03:57:08.412Z,20.29
2018-12-21T03:59:34.426Z,20.28
2018-12-21T04:02:00.392Z,20.30
2018-12-21T04:04:26.343Z,20.27
2018-12-21T04:06:52.413Z,20.28
2018-12-21T04:09:18.386Z,20.28
2018-12-21T04:11:44.342Z,20.27
2018-12-21T04:14:10.294Z,20.29
2018-12-21T04:16:36.243Z,20.27
2018-12-21T04:19:02.203Z,20.27
2018-12-21T04:21:28.150Z,20.30
2018-12-21T04:23:54.101Z,20.29
2018-12-21T04:26:20.070Z,20.29
2018-12-21T04:28:46.072Z,20.30
2018-12-21T04:31:12.020Z,20.30
2018-12-21T04:33:37.989Z,20.30
2018-12-21T04:36:04.043Z,20.32
2018-12-21T04:38:30.011Z,20.33
2018-12-21T04:40:55.953Z,20.32
2018-12-21T04:43:21.942Z,20.33
2018-12-21T04:45:47.903Z,20.32
2018-12-21T04:48:13.977Z,20.32
2018-12-21T04:50:40.025Z,20.31
2018-12-21T04:53:05.976Z,20.31
2018-12-21T04:55:31.931Z,20.31
2018-12-21T04:57:57.993Z,20.30
2018-12-21T05:00:23.952Z,20.29
2018-12-21T05:02:49.924Z,20.30
2018-12-21T05:05:15.903Z,20.30
2018-12-21T05:07:41.866Z,20.30
2018-12-21T05:10:07.821Z,20.30
2018-12-21T05:12:33.776Z,20.29
2018-12-21T05:14:59.727Z,20.31
2018-12-21T05:17:25.702Z,20.31
2018-12-21T05:19:51.657Z,20.30
2018-12-21T05:22:17.621Z,20.31
2018-12-21T05:24:43.610Z,20.33
2018-12-21T05:27:09.610Z,20.31
2018-12-21T05:29:35.554Z,20.33
2018-12-21T05:32:01.510Z,20.30
2018-12-21T05:34:27.462Z,20.32
2018-12-21T05:36:53.415Z,20.32
2018-12-21T05:39:19.358Z,20.32
2018-12-21T05:41:45.309Z,20.31
2018-12-21T05:44:11.296Z,20.32
2018-12-21T05:46:37.220Z,20.30
2018-12-21T05:49:03.192Z,20.30
2018-12-21T05:51:29.144Z,20.29
2018-12-21T05:53:55.109Z,20.30
2018-12-21T05:56:21.061Z,20.30
2018-12-21T05:58:47.051Z,20.29
2018-12-21T06:01:13.078Z,20.29
2018-12-21T06:03:39.056Z,20.32
2018-12-21T06:06:05.021Z,20.32
2018-12-21T06:08:30.994Z,20.32
2018-12-21T06:10:56.939Z,20.32
2018-12-21T06:13:22.906Z,20.33
2018-12-21T06:15:48.880Z,20.33
2018-12-21T06:18:14.919Z,20.33
2018-12-21T06:20:40.863Z,20.32
2018-12-21T06:23:09.546Z,20.33
2018-12-21T06:25:34.917Z,20.33
2018-12-21T06:28:00.871Z,20.32
2018-12-21T06:30:26.826Z,20.32
2018-12-21T06:32:52.833Z,20.32
2018-12-21T06:35:18.842Z,20.33
2018-12-21T06:37:44.830Z,20.33
2018-12-21T06:40:10.777Z,20.32
2018-12-21T06:42:36.838Z,20.34
2018-12-21T06:45:02.807Z,20.34
2018-12-21T06:47:28.835Z,20.34
2018-12-21T06:49:54.813Z,20.33
2018-12-21T06:52:20.868Z,20.32
2018-12-21T06:54:46.838Z,20.32
2018-12-21T06:57:12.816Z,20.31
2018-12-21T06:59:38.773Z,20.31
2018-12-21T07:02:04.772Z,20.31
2018-12-21T07:04:30.804Z,20.31
2018-12-21T07:06:56.762Z,20.35
2018-12-21T07:09:22.715Z,20.35
2018-12-21T07:11:48.792Z,20.37
2018-12-21T07:14:14.755Z,20.37
2018-12-21T07:16:40.825Z,20.37
2018-12-21T07:19:06.977Z,20.38
2018-12-21T07:21:32.962Z,20.39
2018-12-21T07:23:58.914Z,20.42
2018-12-21T07:26:24.953Z,20.42
2018-12-21T07:28:50.937Z,20.45
2018-12-21T07:31:16.889Z,20.44
2018-12-21T07:33:42.857Z,20.44
2018-12-21T07:36:08.946Z,20.45
2018-12-21T07:38:35.097Z,20.44
2018-12-21T07:41:01.057Z,20.43
2018-12-21T07:43:27.025Z,20.41
2018-12-21T07:45:53.029Z,20.41
2018-12-21T07:48:18.969Z,20.39
2018-12-21T07:50:44.937Z,20.40
2018-12-21T07:53:10.962Z,20.41
2018-12-21T07:55:37.018Z,20.39
2018-12-21T07:58:03.077Z,20.39
2018-12-21T08:00:29.042Z,20.40
2018-12-21T08:02:55.164Z,20.38
2018-12-21T08:05:21.113Z,20.40
2018-12-21T08:07:47.089Z,20.38
2018-12-21T08:10:13.070Z,20.40
2018-12-21T08:12:39.018Z,20.40
2018-12-21T08:15:05.025Z,20.39
2018-12-21T08:17:30.970Z,20.38
2018-12-21T08:19:56.936Z,20.38
2018-12-21T08:22:22.909Z,20.40
2018-12-21T08:24:48.857Z,20.38
2018-12-21T08:27:14.823Z,20.38
2018-12-21T08:29:40.790Z,20.39
2018-12-21T08:32:06.781Z,20.38
2018-12-21T08:34:32.724Z,20.38
2018-12-21T08:36:58.691Z,20.42
2018-12-21T08:39:24.645Z,20.41
2018-12-21T08:41:50.625Z,20.42
2018-12-21T08:44:16.581Z,20.42
2018-12-21T08:46:42.540Z,20.41
2018-12-21T08:49:08.502Z,20.39
2018-12-21T08:51:34.449Z,20.40
2018-12-21T08:54:00.460Z,20.40
2018-12-21T08:56:26.439Z,20.41
2018-12-21T08:58:52.495Z,20.41
2018-12-21T09:01:18.447Z,20.43
2018-12-21T09:03:44.494Z,20.44
2018-12-21T09:06:18.264Z,20.42
2018-12-21T09:08:38.396Z,20.43
2018-12-21T09:11:04.367Z,20.45
2018-12-21T09:13:30.350Z,20.44
2018-12-21T09:15:56.307Z,20.45
2018-12-21T09:18:22.261Z,20.45
2018-12-21T09:20:48.330Z,20.47
2018-12-21T09:23:14.358Z,20.45
2018-12-21T09:25:40.325Z,20.45
2018-12-21T09:28:06.375Z,20.46
2018-12-21T09:30:32.327Z,20.44
2018-12-21T09:32:58.286Z,20.46
2018-12-21T09:35:24.511Z,20.45
2018-12-21T09:37:50.569Z,20.50
2018-12-21T09:40:16.561Z,20.47
2018-12-21T09:42:42.585Z,20.48
2018-12-21T09:45:08.622Z,20.46
2018-12-21T09:47:34.663Z,20.47
2018-12-21T09:50:00.700Z,20.48
2018-12-21T09:52:26.701Z,20.47
2018-12-21T09:54:52.660Z,20.47
2018-12-21T09:57:18.629Z,20.47
2018-12-21T09:59:44.621Z,20.49
2018-12-21T10:02:10.676Z,20.48
2018-12-21T10:04:36.747Z,20.49
2018-12-21T10:07:02.740Z,20.47
2018-12-21T10:09:28.721Z,20.49
2018-12-21T10:11:54.731Z,20.50
2018-12-21T10:14:20.719Z,20.52
2018-12-21T10:16:46.702Z,20.50
2018-12-21T10:19:12.690Z,20.50
2018-12-21T10:21:38.662Z,20.51
2018-12-21T10:24:04.617Z,20.50
2018-12-21T10:26:30.614Z,20.51
2018-12-21T10:28:56.595Z,20.50
2018-12-21T10:31:22.899Z,20.51
2018-12-21T10:33:49.000Z,20.50
2018-12-21T10:36:15.185Z,20.51
2018-12-21T10:38:41.125Z,20.50
2018-12-21T10:41:07.103Z,20.52
2018-12-21T10:43:33.057Z,20.53
2018-12-21T10:45:59.056Z,20.53
2018-12-21T10:48:25.032Z,20.55
2018-12-21T10:50:51.003Z,20.56
2018-12-21T10:53:17.028Z,20.56
2018-12-21T10:55:43.053Z,20.60
2018-12-21T10:58:09.073Z,20.65
2018-12-21T11:00:35.227Z,20.67
2018-12-21T11:03:01.194Z,20.67
2018-12-21T11:05:27.141Z,20.67
2018-12-21T11:07:53.123Z,20.70
2018-12-21T11:10:19.133Z,20.71
2018-12-21T11:12:45.170Z,20.71
2018-12-21T11:15:11.178Z,20.72
2018-12-21T11:17:37.213Z,20.73
2018-12-21T11:20:03.238Z,20.74
2018-12-21T11:22:29.205Z,20.73
2018-12-21T11:24:55.161Z,20.72
2018-12-21T11:27:21.233Z,20.74
2018-12-21T11:29:47.175Z,20.73
2018-12-21T11:32:13.193Z,20.73
2018-12-21T11:34:39.162Z,20.72
2018-12-21T11:37:05.220Z,20.71
2018-12-21T11:39:31.165Z,20.69
2018-12-21T11:41:57.313Z,20.67
2018-12-21T11:44:23.378Z,20.65
2018-12-21T11:46:49.340Z,20.69
2018-12-21T11:49:15.330Z,20.67
2018-12-21T11:51:41.310Z,20.66
2018-12-21T11:54:07.290Z,20.66
2018-12-21T11:56:33.281Z,20.67
2018-12-21T11:58:59.459Z,20.69
2018-12-21T12:01:25.411Z,20.70
2018-12-21T12:03:51.370Z,20.68
2018-12-21T12:06:17.363Z,20.68
2018-12-21T12:08:43.679Z,20.70
2018-12-21T12:11:09.617Z,20.71
2018-12-21T12:13:35.585Z,20.72
2018-12-21T12:16:01.559Z,20.74
2018-12-21T12:18:27.527Z,20.74
2018-12-21T12:20:53.526Z,20.76
2018-12-21T12:23:19.499Z,20.78
2018-12-21T12:25:46.457Z,20.76
2018-12-21T12:28:12.476Z,20.78
2018-12-21T12:30:38.421Z,20.79
2018-12-21T12:33:04.396Z,20.79
2018-12-21T12:35:30.354Z,20.79
2018-12-21T12:37:56.340Z,20.77
2018-12-21T12:40:22.282Z,20.77
2018-12-21T12:42:48.243Z,20.74
2018-12-21T12:45:14.256Z,20.75
2018-12-21T12:47:40.286Z,20.74
2018-12-21T12:50:06.315Z,20.75
2018-12-21T12:52:32.352Z,20.75
2018-12-21T12:55:03.020Z,20.74
2018-12-21T12:57:26.346Z,20.74
2018-12-21T12:59:52.393Z,20.71
2018-12-21T13:02:18.445Z,20.70
2018-12-21T13:04:44.434Z,20.70
2018-12-21T13:07:10.397Z,20.68
2018-12-21T13:09:36.375Z,20.69
2018-12-21T13:12:02.361Z,20.69
2018-12-21T13:14:28.346Z,20.66
2018-12-21T13:16:54.328Z,20.66
2018-12-21T13:19:20.314Z,20.66
2018-12-21T13:21:46.277Z,20.67
2018-12-21T13:24:12.264Z,20.65
2018-12-21T13:26:38.284Z,20.64
2018-12-21T13:29:04.529Z,20.67
2018-12-21T13:31:30.558Z,20.66
2018-12-21T13:33:56.592Z,20.67
2018-12-21T13:36:22.556Z,20.66
2018-12-21T13:38:48.530Z,20.67
2018-12-21T13:41:14.489Z,20.69
2018-12-21T13:43:40.444Z,20.67
2018-12-21T13:46:06.382Z,20.67
2018-12-21T13:48:32.354Z,20.69
2018-12-21T13:50:58.322Z,20.70
2018-12-21T13:53:24.277Z,20.69
2018-12-21T13:55:50.246Z,20.66
2018-12-21T13:58:16.284Z,20.66
2018-12-21T14:00:42.230Z,20.66
2018-12-21T14:03:08.225Z,20.67
2018-12-21T14:05:34.201Z,20.66
2018-12-21T14:08:00.241Z,20.69
2018-12-21T14:10:26.938Z,20.67
2018-12-21T14:12:52.889Z,20.67
2018-12-21T14:15:18.858Z,20.67
2018-12-21T14:17:44.838Z,20.68
2018-12-21T14:20:10.818Z,20.68
2018-12-21T14:22:36.782Z,20.68
2018-12-21T14:25:02.742Z,20.67
2018-12-21T14:27:28.818Z,20.67
2018-12-21T14:29:54.838Z,20.67
2018-12-21T14:32:20.805Z,20.66
2018-12-21T14:34:46.789Z,20.67
2018-12-21T14:37:12.828Z,20.67
2018-12-21T14:39:38.820Z,20.66
2018-12-21T14:42:04.792Z,20.64
2018-12-21T14:44:30.758Z,20.65
2018-12-21T14:46:56.736Z,20.64
2018-12-21T14:49:22.712Z,20.65
2018-12-21T14:51:48.798Z,20.66
2018-12-21T14:54:14.843Z,20.65
2018-12-21T14:56:40.786Z,20.66
2018-12-21T14:59:06.787Z,20.67
2018-12-21T15:01:32.792Z,20.67
2018-12-21T15:03:58.841Z,20.69
2018-12-21T15:06:24.818Z,20.70
2018-12-21T15:08:50.773Z,20.70
2018-12-21T15:11:16.724Z,20.69
2018-12-21T15:13:42.673Z,20.71
2018-12-21T15:16:08.802Z,20.74
2018-12-21T15:18:34.780Z,20.74
2018-12-21T15:21:00.754Z,20.74
2018-12-21T15:23:26.713Z,20.75
2018-12-21T15:25:52.698Z,20.75
2018-12-21T15:28:18.659Z,20.75
2018-12-21T15:30:44.620Z,20.78
2018-12-21T15:33:10.670Z,20.80
2018-12-21T15:35:36.816Z,20.80
2018-12-21T15:38:02.799Z,20.82
2018-12-21T15:40:28.782Z,20.83
2018-12-21T15:42:54.732Z,20.83
2018-12-21T15:45:20.688Z,20.82
2018-12-21T15:47:46.656Z,20.84
2018-12-21T15:50:12.610Z,20.86
2018-12-21T15:52:38.581Z,20.85
2018-12-21T15:55:04.550Z,20.84
2018-12-21T15:57:30.497Z,20.83
2018-12-21T15:59:56.467Z,20.81
2018-12-21T16:02:22.414Z,20.79
2018-12-21T16:04:48.358Z,20.77
2018-12-21T16:07:14.328Z,20.72
2018-12-21T16:09:40.274Z,20.73
2018-12-21T16:12:06.335Z,20.71
2018-12-21T16:14:34.621Z,20.71
2018-12-21T16:17:00.298Z,20.70
2018-12-21T16:19:26.275Z,20.69
2018-12-21T16:21:52.244Z,20.69
2018-12-21T16:24:18.211Z,20.68
2018-12-21T16:26:44.181Z,20.68
2018-12-21T16:29:10.134Z,20.66
2018-12-21T16:31:36.129Z,20.64
2018-12-21T16:34:02.137Z,20.65
2018-12-21T16:36:28.098Z,20.65
2018-12-21T16:38:54.085Z,20.64
2018-12-21T16:41:20.059Z,20.64
2018-12-21T16:43:46.122Z,20.67
2018-12-21T16:46:12.181Z,20.66
2018-12-21T16:48:38.174Z,20.65
2018-12-21T16:51:04.194Z,20.69
2018-12-21T16:53:30.142Z,20.68
2018-12-21T16:55:56.095Z,20.65
2018-12-21T16:58:22.077Z,20.66
2018-12-21T17:00:48.049Z,20.63
2018-12-21T17:03:15.738Z,20.63
2018-12-21T17:05:41.975Z,20.63
2018-12-21T17:08:07.946Z,20.62
2018-12-21T17:10:34.001Z,20.63
2018-12-21T17:12:59.965Z,20.61
2018-12-21T17:15:25.957Z,20.60
2018-12-21T17:17:51.940Z,20.63
2018-12-21T17:20:17.982Z,20.60
2018-12-21T17:22:43.936Z,20.59
2018-12-21T17:25:09.888Z,20.60
2018-12-21T17:27:35.951Z,20.60
2018-12-21T17:30:01.935Z,20.61
2018-12-21T17:32:28.622Z,20.62
2018-12-21T17:34:55.883Z,20.62
2018-12-21T17:37:22.152Z,20.61
2018-12-21T17:39:48.106Z,20.62
2018-12-21T17:42:14.085Z,20.60
2018-12-21T17:44:40.043Z,20.59
2018-12-21T17:47:06.023Z,20.59
2018-12-21T17:49:31.978Z,20.60
2018-12-21T17:52:01.535Z,20.59
2018-12-21T17:54:26.017Z,20.59
2018-12-21T17:56:51.967Z,20.59
2018-12-21T17:59:18.174Z,20.58
2018-12-21T18:01:44.109Z,20.58
2018-12-21T18:04:10.063Z,20.57
2018-12-21T18:06:36.005Z,20.57
2018-12-21T18:09:02.002Z,20.56
2018-12-21T18:11:27.961Z,20.55
2018-12-21T18:13:53.933Z,20.55
2018-12-21T18:16:20.864Z,20.54
2018-12-21T18:18:46.986Z,20.56
2018-12-21T18:21:12.973Z,20.56
2018-12-21T18:23:38.939Z,20.54
2018-12-21T18:26:04.925Z,20.56
2018-12-21T18:28:31.121Z,20.55
2018-12-21T18:30:57.144Z,20.54
2018-12-21T18:33:23.118Z,20.55
2018-12-21T18:35:49.078Z,20.53
2018-12-21T18:38:15.035Z,20.55
2018-12-21T18:40:40.996Z,20.54
2018-12-21T18:43:06.946Z,20.57
2018-12-21T18:45:32.897Z,20.55
2018-12-21T18:47:59.061Z,20.55
2018-12-21T18:50:25.019Z,20.56
2018-12-21T18:52:50.986Z,20.55
2018-12-21T18:55:17.466Z,20.56
2018-12-21T18:57:43.628Z,20.55
2018-12-21T19:00:09.627Z,20.52
2018-12-21T19:02:35.600Z,20.53
2018-12-21T19:05:01.610Z,20.56
2018-12-21T19:07:27.564Z,20.57
2018-12-21T19:09:53.567Z,20.58
2018-12-21T19:12:19.589Z,20.60
2018-12-21T19:14:45.584Z,20.58
2018-12-21T19:17:11.668Z,20.58
2018-12-21T19:19:37.816Z,20.60
2018-12-21T19:22:03.788Z,20.59
2018-12-21T19:24:29.737Z,20.56
2018-12-21T19:26:56.088Z,20.61
2018-12-21T19:29:22.164Z,20.60
2018-12-21T19:31:48.107Z,20.60
2018-12-21T19:34:14.097Z,20.61
2018-12-21T19:36:40.165Z,20.58
2018-12-21T19:39:06.154Z,20.62
2018-12-21T19:41:32.113Z,20.62
2018-12-21T19:43:58.141Z,20.61
2018-12-21T19:46:24.128Z,20.61
2018-12-21T19:48:50.135Z,20.61
2018-12-21T19:51:16.090Z,20.62
2018-12-21T19:53:42.060Z,20.60
2018-12-21T19:56:08.136Z,20.60
2018-12-21T19:58:34.198Z,20.63
2018-12-21T20:01:00.337Z,20.64
2018-12-21T20:03:26.375Z,20.60
2018-12-21T20:05:52.349Z,20.61
2018-12-21T20:08:18.327Z,20.62
2018-12-21T20:10:44.377Z,20.65
2018-12-21T20:13:10.577Z,20.66
2018-12-21T20:15:36.530Z,20.64
2018-12-21T20:18:02.505Z,20.64
2018-12-21T20:20:28.571Z,20.66
2018-12-21T20:22:54.632Z,20.67
2018-12-21T20:25:20.586Z,20.67
2018-12-21T20:27:46.553Z,20.66
2018-12-21T20:30:12.510Z,20.66
2018-12-21T20:32:38.479Z,20.68
2018-12-21T20:35:04.530Z,20.68
2018-12-21T20:37:30.505Z,20.70
2018-12-21T20:39:56.557Z,20.68
2018-12-21T20:42:22.508Z,20.69
2018-12-21T20:44:48.496Z,20.70
2018-12-21T20:47:14.458Z,20.68
2018-12-21T20:49:40.421Z,20.70
2018-12-21T20:52:06.407Z,20.69
2018-12-21T20:54:32.372Z,20.66
2018-12-21T20:56:58.336Z,20.65
2018-12-21T20:59:24.306Z,20.65
2018-12-21T21:01:50.279Z,20.62
2018-12-21T21:04:16.282Z,20.65
2018-12-21T21:06:42.267Z,20.64
2018-12-21T21:09:08.219Z,20.65
2018-12-21T21:11:34.270Z,20.65
2018-12-21T21:14:00.338Z,20.63
2018-12-21T21:16:26.418Z,20.65
2018-12-21T21:18:52.389Z,20.63
2018-12-21T21:21:18.366Z,20.63
2018-12-21T21:23:44.434Z,20.65
2018-12-21T21:26:10.434Z,20.64
2018-12-21T21:28:36.376Z,20.65
2018-12-21T21:31:02.365Z,20.66
2018-12-21T21:33:28.334Z,20.66
2018-12-21T21:35:54.312Z,20.66
2018-12-21T21:38:21.002Z,20.66
2018-12-21T21:40:46.980Z,20.65
2018-12-21T21:43:12.983Z,20.64
2018-12-21T21:45:38.987Z,20.65
2018-12-21T21:48:05.006Z,20.64
2018-12-21T21:50:30.951Z,20.64
2018-12-21T21:52:56.959Z,20.65
2018-12-21T21:55:24.272Z,20.64
2018-12-21T21:57:50.429Z,20.64
2018-12-21T22:00:16.512Z,20.62
2018-12-21T22:02:42.571Z,20.61
2018-12-21T22:05:08.745Z,20.59
2018-12-21T22:07:34.833Z,20.60
2018-12-21T22:10:00.876Z,20.60
2018-12-21T22:12:26.832Z,20.60
2018-12-21T22:14:52.805Z,20.59
2018-12-21T22:17:18.786Z,20.58
2018-12-21T22:19:44.739Z,20.57
2018-12-21T22:22:10.730Z,20.58
2018-12-21T22:24:36.677Z,20.60
2018-12-21T22:27:02.711Z,20.60
2018-12-21T22:29:28.728Z,20.59
2018-12-21T22:31:54.680Z,20.60
2018-12-21T22:34:20.643Z,20.59
2018-12-21T22:36:46.600Z,20.59
2018-12-21T22:39:12.561Z,20.59
2018-12-21T22:41:38.515Z,20.58
2018-12-21T22:44:04.519Z,20.56
2018-12-21T22:46:30.532Z,20.54
2018-12-21T22:48:56.479Z,20.54
2018-12-21T22:51:22.429Z,20.52
2018-12-21T22:53:48.395Z,20.52
2018-12-21T22:56:14.406Z,20.52
2018-12-21T22:58:40.475Z,20.50
2018-12-21T23:01:06.443Z,20.51
2018-12-21T23:03:32.411Z,20.51
2018-12-21T23:05:58.402Z,20.53
2018-12-21T23:08:24.356Z,20.55
2018-12-21T23:10:50.330Z,20.55
2018-12-21T23:13:16.313Z,20.55
2018-12-21T23:15:42.310Z,20.54
2018-12-21T23:18:08.263Z,20.50
2018-12-21T23:20:34.226Z,20.52
2018-12-21T23:23:00.262Z,20.51
2018-12-21T23:25:26.217Z,20.53
2018-12-21T23:27:52.182Z,20.51
2018-12-21T23:30:18.220Z,20.50
2018-12-21T23:32:44.192Z,20.51
2018-12-21T23:35:10.149Z,20.52
2018-12-21T23:37:36.115Z,20.51
2018-12-21T23:40:02.193Z,20.49
2018-12-21T23:42:28.155Z,20.51
2018-12-21T23:44:54.178Z,20.51
2018-12-21T23:47:20.435Z,20.51
2018-12-21T23:49:46.393Z,20.51
2018-12-21T23:52:12.361Z,20.51
2018-12-21T23:54:38.330Z,20.53
2018-12-21T23:57:04.298Z,20.52
2018-12-21T23:59:30.366Z,20.53
